sensor_id;sensor_type;location;lat;lon;timestamp;P1;durP1;ratioP1;P2;durP2;ratioP2
31390;SDS011;18022;45.492;11.548;2023-04-03T00:01:20;2.70;;;2.50;;
31390;SDS011;18022;45.492;11.548;2023-04-03T00:03:46;3.75;;;2.72;;
31390;SDS011;18022;45.492;11.548;2023-04-03T00:06:12;3.58;;;2.33;;
31390;SDS011;18022;45.492;11.548;2023-04-03T00:08:38;3.30;;;2.72;;
31390;SDS011;18022;45.492;11.548;2023-04-03T00:11:05;3.13;;;2.38;;
31390;SDS011;18022;45.492;11.548;2023-04-03T00:13:32;5.47;;;2.10;;
31390;SDS011;18022;45.492;11.548;2023-04-03T00:15:58;2.92;;;2.13;;
31390;SDS011;18022;45.492;11.548;2023-04-03T00:18:24;2.45;;;2.10;;
31390;SDS011;18022;45.492;11.548;2023-04-03T00:20:50;2.55;;;2.20;;
31390;SDS011;18022;45.492;11.548;2023-04-03T00:23:16;2.60;;;2.40;;
31390;SDS011;18022;45.492;11.548;2023-04-03T00:25:42;5.82;;;2.40;;
31390;SDS011;18022;45.492;11.548;2023-04-03T00:28:09;2.47;;;2.28;;
31390;SDS011;18022;45.492;11.548;2023-04-03T00:30:35;2.47;;;2.28;;
31390;SDS011;18022;45.492;11.548;2023-04-03T00:33:01;3.10;;;2.38;;
31390;SDS011;18022;45.492;11.548;2023-04-03T00:35:27;3.10;;;2.33;;
31390;SDS011;18022;45.492;11.548;2023-04-03T00:37:55;3.80;;;2.42;;
31390;SDS011;18022;45.492;11.548;2023-04-03T00:40:22;2.83;;;2.30;;
31390;SDS011;18022;45.492;11.548;2023-04-03T00:42:51;2.58;;;2.35;;
31390;SDS011;18022;45.492;11.548;2023-04-03T00:47:44;3.92;;;2.40;;
31390;SDS011;18022;45.492;11.548;2023-04-03T00:50:10;2.78;;;2.42;;
31390;SDS011;18022;45.492;11.548;2023-04-03T00:52:36;2.70;;;2.45;;
31390;SDS011;18022;45.492;11.548;2023-04-03T00:55:04;4.60;;;2.45;;
31390;SDS011;18022;45.492;11.548;2023-04-03T00:57:31;2.35;;;2.13;;
31390;SDS011;18022;45.492;11.548;2023-04-03T00:59:59;3.55;;;2.20;;
31390;SDS011;18022;45.492;11.548;2023-04-03T01:02:26;2.83;;;2.30;;
31390;SDS011;18022;45.492;11.548;2023-04-03T01:04:52;2.85;;;2.30;;
31390;SDS011;18022;45.492;11.548;2023-04-03T01:07:20;2.40;;;2.20;;
31390;SDS011;18022;45.492;11.548;2023-04-03T01:09:48;2.63;;;2.38;;
31390;SDS011;18022;45.492;11.548;2023-04-03T01:14:46;2.92;;;2.63;;
31390;SDS011;18022;45.492;11.548;2023-04-03T01:22:49;3.65;;;2.67;;
31390;SDS011;18022;45.492;11.548;2023-04-03T01:25:21;3.30;;;2.67;;
31390;SDS011;18022;45.492;11.548;2023-04-03T01:27:47;3.05;;;2.70;;
31390;SDS011;18022;45.492;11.548;2023-04-03T01:30:13;3.25;;;2.60;;
31390;SDS011;18022;45.492;11.548;2023-04-03T01:32:40;3.88;;;2.42;;
31390;SDS011;18022;45.492;11.548;2023-04-03T01:35:07;3.25;;;2.95;;
31390;SDS011;18022;45.492;11.548;2023-04-03T01:40:00;4.18;;;3.13;;
31390;SDS011;18022;45.492;11.548;2023-04-03T01:42:26;4.30;;;2.92;;
31390;SDS011;18022;45.492;11.548;2023-04-03T01:44:52;7.25;;;3.00;;
31390;SDS011;18022;45.492;11.548;2023-04-03T01:47:18;2.75;;;2.47;;
31390;SDS011;18022;45.492;11.548;2023-04-03T01:49:44;6.38;;;2.80;;
31390;SDS011;18022;45.492;11.548;2023-04-03T01:52:10;2.97;;;2.45;;
31390;SDS011;18022;45.492;11.548;2023-04-03T01:54:36;3.13;;;2.50;;
31390;SDS011;18022;45.492;11.548;2023-04-03T01:57:02;3.17;;;2.58;;
31390;SDS011;18022;45.492;11.548;2023-04-03T01:59:28;2.97;;;2.45;;
31390;SDS011;18022;45.492;11.548;2023-04-03T02:01:54;3.20;;;2.50;;
31390;SDS011;18022;45.492;11.548;2023-04-03T02:04:20;2.90;;;2.70;;
31390;SDS011;18022;45.492;11.548;2023-04-03T02:06:46;4.38;;;3.50;;
31390;SDS011;18022;45.492;11.548;2023-04-03T02:09:13;4.47;;;3.67;;
31390;SDS011;18022;45.492;11.548;2023-04-03T02:11:39;5.40;;;3.50;;
31390;SDS011;18022;45.492;11.548;2023-04-03T02:14:05;4.75;;;3.83;;
31390;SDS011;18022;45.492;11.548;2023-04-03T02:16:31;6.03;;;3.85;;
31390;SDS011;18022;45.492;11.548;2023-04-03T02:18:58;4.28;;;3.50;;
31390;SDS011;18022;45.492;11.548;2023-04-03T02:21:24;3.95;;;3.42;;
31390;SDS011;18022;45.492;11.548;2023-04-03T02:23:50;4.97;;;3.53;;
31390;SDS011;18022;45.492;11.548;2023-04-03T02:26:16;2.92;;;2.70;;
31390;SDS011;18022;45.492;11.548;2023-04-03T02:28:42;3.63;;;3.33;;
31390;SDS011;18022;45.492;11.548;2023-04-03T02:31:09;3.38;;;3.08;;
31390;SDS011;18022;45.492;11.548;2023-04-03T02:33:35;6.22;;;3.65;;
31390;SDS011;18022;45.492;11.548;2023-04-03T02:36:02;4.85;;;3.42;;
31390;SDS011;18022;45.492;11.548;2023-04-03T02:38:28;4.22;;;3.83;;
31390;SDS011;18022;45.492;11.548;2023-04-03T02:40:59;5.57;;;3.72;;
31390;SDS011;18022;45.492;11.548;2023-04-03T02:43:25;4.72;;;3.78;;
31390;SDS011;18022;45.492;11.548;2023-04-03T02:45:51;4.07;;;3.67;;
31390;SDS011;18022;45.492;11.548;2023-04-03T02:48:17;4.75;;;3.60;;
31390;SDS011;18022;45.492;11.548;2023-04-03T02:50:43;3.40;;;3.10;;
31390;SDS011;18022;45.492;11.548;2023-04-03T02:53:10;3.97;;;3.58;;
31390;SDS011;18022;45.492;11.548;2023-04-03T02:55:36;5.00;;;3.30;;
31390;SDS011;18022;45.492;11.548;2023-04-03T02:58:02;3.97;;;3.60;;
31390;SDS011;18022;45.492;11.548;2023-04-03T03:00:28;3.58;;;3.28;;
31390;SDS011;18022;45.492;11.548;2023-04-03T03:02:55;3.92;;;3.38;;
31390;SDS011;18022;45.492;11.548;2023-04-03T03:05:21;6.18;;;3.25;;
31390;SDS011;18022;45.492;11.548;2023-04-03T03:07:47;4.00;;;3.50;;
31390;SDS011;18022;45.492;11.548;2023-04-03T03:10:13;3.65;;;3.30;;
31390;SDS011;18022;45.492;11.548;2023-04-03T03:12:39;5.65;;;3.40;;
31390;SDS011;18022;45.492;11.548;2023-04-03T03:15:06;4.25;;;3.47;;
31390;SDS011;18022;45.492;11.548;2023-04-03T03:17:32;4.45;;;3.30;;
31390;SDS011;18022;45.492;11.548;2023-04-03T03:19:58;4.20;;;3.80;;
31390;SDS011;18022;45.492;11.548;2023-04-03T03:22:25;5.38;;;4.47;;
31390;SDS011;18022;45.492;11.548;2023-04-03T03:24:51;4.30;;;3.77;;
31390;SDS011;18022;45.492;11.548;2023-04-03T03:27:17;4.95;;;4.20;;
31390;SDS011;18022;45.492;11.548;2023-04-03T03:29:43;4.30;;;3.88;;
31390;SDS011;18022;45.492;11.548;2023-04-03T03:32:09;4.85;;;3.95;;
31390;SDS011;18022;45.492;11.548;2023-04-03T03:34:35;10.77;;;4.65;;
31390;SDS011;18022;45.492;11.548;2023-04-03T03:37:01;6.15;;;4.43;;
31390;SDS011;18022;45.492;11.548;2023-04-03T03:39:28;4.70;;;3.83;;
31390;SDS011;18022;45.492;11.548;2023-04-03T03:41:54;5.97;;;4.85;;
31390;SDS011;18022;45.492;11.548;2023-04-03T03:44:20;4.90;;;4.50;;
31390;SDS011;18022;45.492;11.548;2023-04-03T03:46:46;4.75;;;4.20;;
31390;SDS011;18022;45.492;11.548;2023-04-03T03:49:12;5.90;;;4.28;;
31390;SDS011;18022;45.492;11.548;2023-04-03T03:51:39;5.28;;;4.43;;
31390;SDS011;18022;45.492;11.548;2023-04-03T03:54:05;5.10;;;4.47;;
31390;SDS011;18022;45.492;11.548;2023-04-03T03:56:31;4.90;;;4.05;;
31390;SDS011;18022;45.492;11.548;2023-04-03T03:58:58;4.18;;;3.78;;
31390;SDS011;18022;45.492;11.548;2023-04-03T04:01:24;4.63;;;4.18;;
31390;SDS011;18022;45.492;11.548;2023-04-03T04:03:50;4.32;;;3.92;;
31390;SDS011;18022;45.492;11.548;2023-04-03T04:06:16;6.55;;;4.25;;
31390;SDS011;18022;45.492;11.548;2023-04-03T04:08:42;4.50;;;4.00;;
31390;SDS011;18022;45.492;11.548;2023-04-03T04:11:08;5.00;;;4.47;;
31390;SDS011;18022;45.492;11.548;2023-04-03T04:13:35;5.03;;;4.13;;
31390;SDS011;18022;45.492;11.548;2023-04-03T04:16:01;5.28;;;4.70;;
31390;SDS011;18022;45.492;11.548;2023-04-03T04:18:27;5.45;;;4.55;;
31390;SDS011;18022;45.492;11.548;2023-04-03T04:20:53;7.13;;;4.80;;
31390;SDS011;18022;45.492;11.548;2023-04-03T04:23:19;4.70;;;4.30;;
31390;SDS011;18022;45.492;11.548;2023-04-03T04:25:46;9.40;;;5.13;;
31390;SDS011;18022;45.492;11.548;2023-04-03T04:28:12;4.90;;;4.40;;
31390;SDS011;18022;45.492;11.548;2023-04-03T04:30:38;4.80;;;4.10;;
31390;SDS011;18022;45.492;11.548;2023-04-03T04:33:04;5.10;;;4.60;;
31390;SDS011;18022;45.492;11.548;2023-04-03T04:35:30;5.13;;;4.63;;
31390;SDS011;18022;45.492;11.548;2023-04-03T04:37:56;4.80;;;4.38;;
31390;SDS011;18022;45.492;11.548;2023-04-03T04:40:22;5.88;;;4.35;;
31390;SDS011;18022;45.492;11.548;2023-04-03T04:42:48;5.97;;;4.47;;
31390;SDS011;18022;45.492;11.548;2023-04-03T04:45:14;5.50;;;4.70;;
31390;SDS011;18022;45.492;11.548;2023-04-03T04:47:41;5.30;;;4.20;;
31390;SDS011;18022;45.492;11.548;2023-04-03T04:50:07;7.50;;;5.05;;
31390;SDS011;18022;45.492;11.548;2023-04-03T04:52:36;5.35;;;4.72;;
31390;SDS011;18022;45.492;11.548;2023-04-03T04:55:06;5.57;;;4.63;;
31390;SDS011;18022;45.492;11.548;2023-04-03T04:57:32;5.40;;;4.68;;
31390;SDS011;18022;45.492;11.548;2023-04-03T04:59:58;5.70;;;4.50;;
31390;SDS011;18022;45.492;11.548;2023-04-03T05:02:24;5.75;;;4.90;;
31390;SDS011;18022;45.492;11.548;2023-04-03T05:04:50;6.93;;;4.72;;
31390;SDS011;18022;45.492;11.548;2023-04-03T05:07:17;9.02;;;5.45;;
31390;SDS011;18022;45.492;11.548;2023-04-03T05:09:43;5.63;;;4.80;;
31390;SDS011;18022;45.492;11.548;2023-04-03T05:12:09;5.68;;;5.00;;
31390;SDS011;18022;45.492;11.548;2023-04-03T05:14:35;5.38;;;4.50;;
31390;SDS011;18022;45.492;11.548;2023-04-03T05:17:01;5.65;;;4.45;;
31390;SDS011;18022;45.492;11.548;2023-04-03T05:19:27;3.55;;;3.25;;
31390;SDS011;18022;45.492;11.548;2023-04-03T05:21:53;6.63;;;4.68;;
31390;SDS011;18022;45.492;11.548;2023-04-03T05:24:19;6.70;;;4.88;;
31390;SDS011;18022;45.492;11.548;2023-04-03T05:26:46;6.63;;;4.90;;
31390;SDS011;18022;45.492;11.548;2023-04-03T05:29:12;8.00;;;5.22;;
31390;SDS011;18022;45.492;11.548;2023-04-03T05:31:38;6.70;;;5.13;;
31390;SDS011;18022;45.492;11.548;2023-04-03T05:34:04;8.57;;;5.25;;
31390;SDS011;18022;45.492;11.548;2023-04-03T05:36:30;5.00;;;4.60;;
31390;SDS011;18022;45.492;11.548;2023-04-03T05:38:56;6.15;;;5.47;;
31390;SDS011;18022;45.492;11.548;2023-04-03T05:41:23;4.85;;;3.58;;
31390;SDS011;18022;45.492;11.548;2023-04-03T05:43:49;6.28;;;4.82;;
31390;SDS011;18022;45.492;11.548;2023-04-03T05:46:16;6.63;;;5.53;;
31390;SDS011;18022;45.492;11.548;2023-04-03T05:48:43;5.97;;;5.10;;
31390;SDS011;18022;45.492;11.548;2023-04-03T05:51:17;10.45;;;4.70;;
31390;SDS011;18022;45.492;11.548;2023-04-03T05:53:43;5.22;;;4.53;;
31390;SDS011;18022;45.492;11.548;2023-04-03T05:56:10;5.63;;;4.73;;
31390;SDS011;18022;45.492;11.548;2023-04-03T05:58:36;6.03;;;4.72;;
31390;SDS011;18022;45.492;11.548;2023-04-03T06:01:02;6.57;;;4.70;;
31390;SDS011;18022;45.492;11.548;2023-04-03T06:03:28;5.50;;;4.78;;
31390;SDS011;18022;45.492;11.548;2023-04-03T06:05:54;6.05;;;4.90;;
31390;SDS011;18022;45.492;11.548;2023-04-03T06:08:20;6.93;;;4.75;;
31390;SDS011;18022;45.492;11.548;2023-04-03T06:10:47;6.50;;;5.13;;
31390;SDS011;18022;45.492;11.548;2023-04-03T06:13:13;8.73;;;5.10;;
31390;SDS011;18022;45.492;11.548;2023-04-03T06:15:39;5.65;;;5.03;;
31390;SDS011;18022;45.492;11.548;2023-04-03T06:18:05;5.15;;;4.65;;
31390;SDS011;18022;45.492;11.548;2023-04-03T06:20:31;7.28;;;4.63;;
31390;SDS011;18022;45.492;11.548;2023-04-03T06:22:57;5.75;;;4.65;;
31390;SDS011;18022;45.492;11.548;2023-04-03T06:25:23;8.43;;;4.85;;
31390;SDS011;18022;45.492;11.548;2023-04-03T06:27:50;6.45;;;4.50;;
31390;SDS011;18022;45.492;11.548;2023-04-03T06:30:16;8.18;;;4.75;;
31390;SDS011;18022;45.492;11.548;2023-04-03T06:32:42;6.20;;;4.32;;
31390;SDS011;18022;45.492;11.548;2023-04-03T06:35:08;4.35;;;3.90;;
31390;SDS011;18022;45.492;11.548;2023-04-03T06:37:34;12.20;;;4.22;;
31390;SDS011;18022;45.492;11.548;2023-04-03T06:40:01;7.05;;;3.28;;
31390;SDS011;18022;45.492;11.548;2023-04-03T06:42:28;4.27;;;2.90;;
31390;SDS011;18022;45.492;11.548;2023-04-03T06:44:54;4.85;;;2.50;;
31390;SDS011;18022;45.492;11.548;2023-04-03T06:47:20;7.10;;;1.98;;
31390;SDS011;18022;45.492;11.548;2023-04-03T06:49:46;5.88;;;2.50;;
31390;SDS011;18022;45.492;11.548;2023-04-03T06:52:12;9.70;;;2.30;;
31390;SDS011;18022;45.492;11.548;2023-04-03T06:54:39;7.45;;;1.70;;
31390;SDS011;18022;45.492;11.548;2023-04-03T06:57:05;7.43;;;1.95;;
31390;SDS011;18022;45.492;11.548;2023-04-03T06:59:31;5.40;;;1.80;;
31390;SDS011;18022;45.492;11.548;2023-04-03T07:01:57;6.40;;;1.90;;
31390;SDS011;18022;45.492;11.548;2023-04-03T07:04:24;3.47;;;1.80;;
31390;SDS011;18022;45.492;11.548;2023-04-03T07:06:51;5.13;;;1.80;;
31390;SDS011;18022;45.492;11.548;2023-04-03T07:09:17;8.20;;;2.30;;
31390;SDS011;18022;45.492;11.548;2023-04-03T07:11:44;9.50;;;2.00;;
31390;SDS011;18022;45.492;11.548;2023-04-03T07:14:10;4.63;;;2.03;;
31390;SDS011;18022;45.492;11.548;2023-04-03T07:16:36;6.78;;;1.88;;
31390;SDS011;18022;45.492;11.548;2023-04-03T07:19:02;6.70;;;2.00;;
31390;SDS011;18022;45.492;11.548;2023-04-03T07:21:29;5.35;;;2.15;;
31390;SDS011;18022;45.492;11.548;2023-04-03T07:23:55;7.00;;;2.03;;
31390;SDS011;18022;45.492;11.548;2023-04-03T07:26:21;5.35;;;2.08;;
31390;SDS011;18022;45.492;11.548;2023-04-03T07:28:48;6.07;;;2.30;;
31390;SDS011;18022;45.492;11.548;2023-04-03T07:31:15;4.30;;;2.33;;
31390;SDS011;18022;45.492;11.548;2023-04-03T07:33:43;4.32;;;2.58;;
31390;SDS011;18022;45.492;11.548;2023-04-03T07:36:10;5.13;;;1.90;;
31390;SDS011;18022;45.492;11.548;2023-04-03T07:38:36;4.32;;;2.00;;
31390;SDS011;18022;45.492;11.548;2023-04-03T07:41:03;5.20;;;1.58;;
31390;SDS011;18022;45.492;11.548;2023-04-03T07:43:29;7.35;;;2.10;;
31390;SDS011;18022;45.492;11.548;2023-04-03T07:45:55;7.65;;;1.88;;
31390;SDS011;18022;45.492;11.548;2023-04-03T07:48:22;5.97;;;1.83;;
31390;SDS011;18022;45.492;11.548;2023-04-03T07:50:48;8.55;;;1.90;;
31390;SDS011;18022;45.492;11.548;2023-04-03T07:53:14;2.83;;;1.63;;
31390;SDS011;18022;45.492;11.548;2023-04-03T07:55:41;10.63;;;1.70;;
31390;SDS011;18022;45.492;11.548;2023-04-03T07:58:10;4.97;;;1.65;;
31390;SDS011;18022;45.492;11.548;2023-04-03T08:00:37;3.58;;;1.60;;
31390;SDS011;18022;45.492;11.548;2023-04-03T08:03:03;3.67;;;1.55;;
31390;SDS011;18022;45.492;11.548;2023-04-03T08:05:29;6.90;;;1.33;;
31390;SDS011;18022;45.492;11.548;2023-04-03T08:07:56;6.55;;;1.45;;
31390;SDS011;18022;45.492;11.548;2023-04-03T08:10:22;5.32;;;1.42;;
31390;SDS011;18022;45.492;11.548;2023-04-03T08:12:48;3.95;;;1.35;;
31390;SDS011;18022;45.492;11.548;2023-04-03T08:15:14;4.22;;;1.30;;
31390;SDS011;18022;45.492;11.548;2023-04-03T08:17:41;8.13;;;1.90;;
31390;SDS011;18022;45.492;11.548;2023-04-03T08:20:07;10.98;;;1.85;;
31390;SDS011;18022;45.492;11.548;2023-04-03T08:22:34;6.40;;;1.67;;
31390;SDS011;18022;45.492;11.548;2023-04-03T08:25:00;7.40;;;1.67;;
31390;SDS011;18022;45.492;11.548;2023-04-03T08:27:26;4.35;;;1.45;;
31390;SDS011;18022;45.492;11.548;2023-04-03T08:29:53;7.05;;;1.55;;
31390;SDS011;18022;45.492;11.548;2023-04-03T08:32:20;4.53;;;2.25;;
31390;SDS011;18022;45.492;11.548;2023-04-03T08:34:46;4.55;;;1.80;;
31390;SDS011;18022;45.492;11.548;2023-04-03T08:37:12;3.58;;;1.63;;
31390;SDS011;18022;45.492;11.548;2023-04-03T08:39:38;11.02;;;1.67;;
31390;SDS011;18022;45.492;11.548;2023-04-03T08:50:05;9.85;;;1.58;;
31390;SDS011;18022;45.492;11.548;2023-04-03T08:52:35;3.90;;;1.38;;
31390;SDS011;18022;45.492;11.548;2023-04-03T08:55:03;11.32;;;1.45;;
31390;SDS011;18022;45.492;11.548;2023-04-03T08:57:31;5.68;;;1.50;;
31390;SDS011;18022;45.492;11.548;2023-04-03T09:00:21;7.10;;;1.63;;
31390;SDS011;18022;45.492;11.548;2023-04-03T09:02:49;6.15;;;1.60;;
31390;SDS011;18022;45.492;11.548;2023-04-03T09:05:17;8.57;;;1.70;;
31390;SDS011;18022;45.492;11.548;2023-04-03T09:07:48;8.68;;;2.08;;
31390;SDS011;18022;45.492;11.548;2023-04-03T09:10:15;8.63;;;2.33;;
31390;SDS011;18022;45.492;11.548;2023-04-03T09:12:46;9.00;;;2.03;;
31390;SDS011;18022;45.492;11.548;2023-04-03T09:15:25;6.85;;;1.75;;
31390;SDS011;18022;45.492;11.548;2023-04-03T09:22:59;5.13;;;1.40;;
31390;SDS011;18022;45.492;11.548;2023-04-03T09:25:32;6.97;;;1.58;;
31390;SDS011;18022;45.492;11.548;2023-04-03T09:27:59;4.25;;;1.58;;
31390;SDS011;18022;45.492;11.548;2023-04-03T09:30:26;4.22;;;1.60;;
31390;SDS011;18022;45.492;11.548;2023-04-03T09:32:54;7.07;;;2.00;;
31390;SDS011;18022;45.492;11.548;2023-04-03T09:37:53;6.40;;;1.70;;
31390;SDS011;18022;45.492;11.548;2023-04-03T09:42:51;6.38;;;1.83;;
31390;SDS011;18022;45.492;11.548;2023-04-03T09:45:25;5.70;;;1.67;;
31390;SDS011;18022;45.492;11.548;2023-04-03T09:50:34;7.15;;;1.98;;
31390;SDS011;18022;45.492;11.548;2023-04-03T09:53:04;4.32;;;1.70;;
31390;SDS011;18022;45.492;11.548;2023-04-03T09:55:31;4.43;;;1.88;;
31390;SDS011;18022;45.492;11.548;2023-04-03T09:57:59;5.68;;;1.90;;
31390;SDS011;18022;45.492;11.548;2023-04-03T10:00:27;6.03;;;1.92;;
31390;SDS011;18022;45.492;11.548;2023-04-03T10:02:54;7.78;;;1.85;;
31390;SDS011;18022;45.492;11.548;2023-04-03T10:05:25;5.22;;;1.70;;
31390;SDS011;18022;45.492;11.548;2023-04-03T10:07:51;5.70;;;1.52;;
31390;SDS011;18022;45.492;11.548;2023-04-03T10:10:19;8.65;;;2.10;;
31390;SDS011;18022;45.492;11.548;2023-04-03T10:12:47;6.50;;;1.60;;
31390;SDS011;18022;45.492;11.548;2023-04-03T10:15:15;4.45;;;1.55;;
31390;SDS011;18022;45.492;11.548;2023-04-03T10:22:39;5.15;;;1.77;;
31390;SDS011;18022;45.492;11.548;2023-04-03T10:35:15;7.47;;;1.50;;
31390;SDS011;18022;45.492;11.548;2023-04-03T10:40:29;9.20;;;1.90;;
31390;SDS011;18022;45.492;11.548;2023-04-03T10:50:54;9.93;;;1.85;;
31390;SDS011;18022;45.492;11.548;2023-04-03T10:58:53;5.63;;;2.38;;
31390;SDS011;18022;45.492;11.548;2023-04-03T11:01:24;10.90;;;2.00;;
31390;SDS011;18022;45.492;11.548;2023-04-03T11:03:55;10.10;;;2.17;;
31390;SDS011;18022;45.492;11.548;2023-04-03T11:06:23;7.93;;;2.20;;
31390;SDS011;18022;45.492;11.548;2023-04-03T11:11:26;5.05;;;1.92;;
31390;SDS011;18022;45.492;11.548;2023-04-03T11:14:38;7.28;;;2.08;;
31390;SDS011;18022;45.492;11.548;2023-04-03T11:16:46;12.77;;;1.90;;
31390;SDS011;18022;45.492;11.548;2023-04-03T11:21:42;6.60;;;1.98;;
31390;SDS011;18022;45.492;11.548;2023-04-03T11:24:21;8.35;;;1.95;;
31390;SDS011;18022;45.492;11.548;2023-04-03T11:26:49;7.20;;;2.28;;
31390;SDS011;18022;45.492;11.548;2023-04-03T11:29:21;12.00;;;2.28;;
31390;SDS011;18022;45.492;11.548;2023-04-03T11:37:01;9.45;;;2.25;;
31390;SDS011;18022;45.492;11.548;2023-04-03T11:39:31;11.48;;;2.88;;
31390;SDS011;18022;45.492;11.548;2023-04-03T11:44:42;12.80;;;2.45;;
31390;SDS011;18022;45.492;11.548;2023-04-03T11:47:11;8.25;;;2.40;;
31390;SDS011;18022;45.492;11.548;2023-04-03T11:49:51;7.50;;;2.47;;
31390;SDS011;18022;45.492;11.548;2023-04-03T12:05:54;10.02;;;2.25;;
31390;SDS011;18022;45.492;11.548;2023-04-03T12:08:29;11.68;;;2.63;;
31390;SDS011;18022;45.492;11.548;2023-04-03T12:16:06;13.45;;;2.58;;
31390;SDS011;18022;45.492;11.548;2023-04-03T12:21:14;5.93;;;1.98;;
31390;SDS011;18022;45.492;11.548;2023-04-03T12:23:57;7.60;;;2.08;;
31390;SDS011;18022;45.492;11.548;2023-04-03T12:29:10;9.68;;;2.17;;
31390;SDS011;18022;45.492;11.548;2023-04-03T12:31:42;9.20;;;2.45;;
31390;SDS011;18022;45.492;11.548;2023-04-03T12:34:15;5.00;;;1.83;;
31390;SDS011;18022;45.492;11.548;2023-04-03T12:42:11;7.65;;;2.25;;
31390;SDS011;18022;45.492;11.548;2023-04-03T12:47:16;5.57;;;2.13;;
31390;SDS011;18022;45.492;11.548;2023-04-03T12:49:44;8.75;;;1.70;;
31390;SDS011;18022;45.492;11.548;2023-04-03T12:54:49;10.43;;;2.25;;
31390;SDS011;18022;45.492;11.548;2023-04-03T12:59:42;11.65;;;2.20;;
31390;SDS011;18022;45.492;11.548;2023-04-03T13:02:19;7.57;;;1.88;;
31390;SDS011;18022;45.492;11.548;2023-04-03T13:04:46;9.38;;;2.10;;
31390;SDS011;18022;45.492;11.548;2023-04-03T13:07:20;6.80;;;2.10;;
31390;SDS011;18022;45.492;11.548;2023-04-03T13:09:54;8.77;;;1.83;;
31390;SDS011;18022;45.492;11.548;2023-04-03T13:12:21;9.30;;;2.00;;
31390;SDS011;18022;45.492;11.548;2023-04-03T13:14:58;5.38;;;2.10;;
31390;SDS011;18022;45.492;11.548;2023-04-03T13:17:25;6.07;;;2.03;;
31390;SDS011;18022;45.492;11.548;2023-04-03T13:19:52;6.63;;;2.10;;
31390;SDS011;18022;45.492;11.548;2023-04-03T13:22:34;14.57;;;2.17;;
31390;SDS011;18022;45.492;11.548;2023-04-03T13:25:05;6.93;;;2.08;;
31390;SDS011;18022;45.492;11.548;2023-04-03T13:27:32;8.18;;;2.00;;
31390;SDS011;18022;45.492;11.548;2023-04-03T13:29:59;7.15;;;2.08;;
31390;SDS011;18022;45.492;11.548;2023-04-03T13:32:27;7.70;;;1.83;;
31390;SDS011;18022;45.492;11.548;2023-04-03T13:34:54;5.30;;;1.88;;
31390;SDS011;18022;45.492;11.548;2023-04-03T13:37:24;7.63;;;1.95;;
31390;SDS011;18022;45.492;11.548;2023-04-03T13:40:09;10.80;;;2.40;;
31390;SDS011;18022;45.492;11.548;2023-04-03T13:42:37;5.80;;;1.90;;
31390;SDS011;18022;45.492;11.548;2023-04-03T13:47:53;5.82;;;1.70;;
31390;SDS011;18022;45.492;11.548;2023-04-03T13:50:21;9.48;;;1.83;;
31390;SDS011;18022;45.492;11.548;2023-04-03T13:52:54;7.30;;;2.00;;
31390;SDS011;18022;45.492;11.548;2023-04-03T13:55:22;3.75;;;1.40;;
31390;SDS011;18022;45.492;11.548;2023-04-03T13:57:50;8.70;;;2.05;;
31390;SDS011;18022;45.492;11.548;2023-04-03T14:00:37;3.40;;;1.83;;
31390;SDS011;18022;45.492;11.548;2023-04-03T14:03:11;6.63;;;1.40;;
31390;SDS011;18022;45.492;11.548;2023-04-03T14:05:38;5.00;;;1.25;;
31390;SDS011;18022;45.492;11.548;2023-04-03T14:08:04;7.63;;;1.35;;
31390;SDS011;18022;45.492;11.548;2023-04-03T14:10:31;6.15;;;1.85;;
31390;SDS011;18022;45.492;11.548;2023-04-03T14:12:57;4.75;;;1.40;;
31390;SDS011;18022;45.492;11.548;2023-04-03T14:15:24;5.05;;;1.63;;
31390;SDS011;18022;45.492;11.548;2023-04-03T14:17:52;7.15;;;1.80;;
31390;SDS011;18022;45.492;11.548;2023-04-03T14:20:20;6.55;;;1.60;;
31390;SDS011;18022;45.492;11.548;2023-04-03T14:22:46;4.18;;;1.50;;
31390;SDS011;18022;45.492;11.548;2023-04-03T14:25:13;6.20;;;1.50;;
31390;SDS011;18022;45.492;11.548;2023-04-03T14:27:41;5.57;;;1.52;;
31390;SDS011;18022;45.492;11.548;2023-04-03T14:30:11;7.55;;;1.60;;
31390;SDS011;18022;45.492;11.548;2023-04-03T14:32:38;3.90;;;1.67;;
31390;SDS011;18022;45.492;11.548;2023-04-03T14:35:04;5.80;;;1.30;;
31390;SDS011;18022;45.492;11.548;2023-04-03T14:37:31;5.60;;;1.50;;
31390;SDS011;18022;45.492;11.548;2023-04-03T14:39:59;4.77;;;1.27;;
31390;SDS011;18022;45.492;11.548;2023-04-03T14:42:29;7.55;;;1.40;;
31390;SDS011;18022;45.492;11.548;2023-04-03T14:44:56;5.43;;;1.20;;
31390;SDS011;18022;45.492;11.548;2023-04-03T14:47:23;4.47;;;1.40;;
31390;SDS011;18022;45.492;11.548;2023-04-03T14:49:51;3.90;;;1.30;;
31390;SDS011;18022;45.492;11.548;2023-04-03T14:52:21;4.13;;;1.30;;
31390;SDS011;18022;45.492;11.548;2023-04-03T14:54:48;5.15;;;1.13;;
31390;SDS011;18022;45.492;11.548;2023-04-03T14:57:14;7.75;;;1.50;;
31390;SDS011;18022;45.492;11.548;2023-04-03T14:59:41;4.22;;;1.40;;
31390;SDS011;18022;45.492;11.548;2023-04-03T15:02:22;3.42;;;1.23;;
31390;SDS011;18022;45.492;11.548;2023-04-03T15:04:50;6.65;;;1.30;;
31390;SDS011;18022;45.492;11.548;2023-04-03T15:07:16;6.40;;;1.35;;
31390;SDS011;18022;45.492;11.548;2023-04-03T15:09:42;5.35;;;1.20;;
31390;SDS011;18022;45.492;11.548;2023-04-03T15:12:08;9.23;;;1.40;;
31390;SDS011;18022;45.492;11.548;2023-04-03T15:14:35;6.30;;;1.15;;
31390;SDS011;18022;45.492;11.548;2023-04-03T15:17:01;5.30;;;1.58;;
31390;SDS011;18022;45.492;11.548;2023-04-03T15:19:29;9.33;;;1.50;;
31390;SDS011;18022;45.492;11.548;2023-04-03T15:21:55;4.00;;;1.00;;
31390;SDS011;18022;45.492;11.548;2023-04-03T15:24:21;6.07;;;1.20;;
31390;SDS011;18022;45.492;11.548;2023-04-03T15:26:47;6.40;;;1.27;;
31390;SDS011;18022;45.492;11.548;2023-04-03T15:29:13;2.05;;;1.30;;
31390;SDS011;18022;45.492;11.548;2023-04-03T15:31:40;3.00;;;1.25;;
31390;SDS011;18022;45.492;11.548;2023-04-03T15:34:06;3.08;;;1.10;;
31390;SDS011;18022;45.492;11.548;2023-04-03T15:36:32;6.22;;;0.93;;
31390;SDS011;18022;45.492;11.548;2023-04-03T15:38:58;3.15;;;1.00;;
31390;SDS011;18022;45.492;11.548;2023-04-03T15:41:24;3.30;;;1.08;;
31390;SDS011;18022;45.492;11.548;2023-04-03T15:43:50;4.95;;;1.02;;
31390;SDS011;18022;45.492;11.548;2023-04-03T15:46:16;2.55;;;1.00;;
31390;SDS011;18022;45.492;11.548;2023-04-03T15:48:42;2.75;;;1.05;;
31390;SDS011;18022;45.492;11.548;2023-04-03T15:51:09;3.92;;;0.85;;
31390;SDS011;18022;45.492;11.548;2023-04-03T15:53:35;2.13;;;0.88;;
31390;SDS011;18022;45.492;11.548;2023-04-03T15:56:01;5.47;;;1.15;;
31390;SDS011;18022;45.492;11.548;2023-04-03T15:58:29;3.47;;;1.00;;
31390;SDS011;18022;45.492;11.548;2023-04-03T16:00:55;3.67;;;1.08;;
31390;SDS011;18022;45.492;11.548;2023-04-03T16:03:21;2.10;;;0.90;;
31390;SDS011;18022;45.492;11.548;2023-04-03T16:05:49;1.65;;;1.00;;
31390;SDS011;18022;45.492;11.548;2023-04-03T16:08:16;1.20;;;0.88;;
31390;SDS011;18022;45.492;11.548;2023-04-03T16:10:42;1.80;;;0.70;;
31390;SDS011;18022;45.492;11.548;2023-04-03T16:13:10;2.45;;;0.88;;
31390;SDS011;18022;45.492;11.548;2023-04-03T16:15:37;1.20;;;0.80;;
31390;SDS011;18022;45.492;11.548;2023-04-03T16:18:03;3.17;;;1.02;;
31390;SDS011;18022;45.492;11.548;2023-04-03T16:20:30;2.55;;;0.85;;
31390;SDS011;18022;45.492;11.548;2023-04-03T16:22:59;1.33;;;1.15;;
31390;SDS011;18022;45.492;11.548;2023-04-03T16:25:26;2.60;;;1.10;;
31390;SDS011;18022;45.492;11.548;2023-04-03T16:27:52;2.00;;;1.02;;
31390;SDS011;18022;45.492;11.548;2023-04-03T16:30:18;2.53;;;0.90;;
31390;SDS011;18022;45.492;11.548;2023-04-03T16:32:44;4.65;;;1.30;;